Milam Dairy, Florida
Current Conditions -  °F | °C
As of 4:53 AM on Monday 20 Oct 2014 (Local Time) from KMIA Reporting Station
Few Clouds Few Clouds  
Wind Chill: 74°   Ceiling: Unl
Heat Index: 74°   Visibility: 10mi
Dew Point: 64°   Wind: 0mph
Humidity: 71%   Direction: NA
Pressure: 29.98"   Gusts: NA
Location:  25.8267°N, 80.3148°W
Report Text: KMIA 200853Z 00000KT 10SM FEW042 23/18 A2998 RMK AO2 SLP152 T02330178 58004
Loading
Personal Weather Stations






























Interactive Weather Map
Tropical Storm Tracking
New forecast layout! Learn more

10-Day Weather Forecast

Advertisements
Track Severe Weather on mobile